sensor_id;sensor_type;location;lat;lon;timestamp;temperature;humidity
42135;DHT22;28312;43.460;11.810;2022-10-31T00:00:59;8.20;56.90
42135;DHT22;28312;43.460;11.810;2022-10-31T00:05:03;8.20;57.00
42135;DHT22;28312;43.460;11.810;2022-10-31T00:09:06;8.20;57.00
42135;DHT22;28312;43.460;11.810;2022-10-31T00:13:10;8.20;56.90
42135;DHT22;28312;43.460;11.810;2022-10-31T00:17:14;8.20;56.90
42135;DHT22;28312;43.460;11.810;2022-10-31T00:21:18;8.10;56.80
42135;DHT22;28312;43.460;11.810;2022-10-31T00:25:22;8.00;56.80
42135;DHT22;28312;43.460;11.810;2022-10-31T00:29:29;8.00;56.90
42135;DHT22;28312;43.460;11.810;2022-10-31T00:33:34;8.00;57.10
42135;DHT22;28312;43.460;11.810;2022-10-31T00:37:40;8.00;57.00
42135;DHT22;28312;43.460;11.810;2022-10-31T00:41:43;8.00;57.00
42135;DHT22;28312;43.460;11.810;2022-10-31T00:45:47;7.90;57.00
42135;DHT22;28312;43.460;11.810;2022-10-31T00:49:51;7.80;57.20
42135;DHT22;28312;43.460;11.810;2022-10-31T00:53:55;7.70;57.30
42135;DHT22;28312;43.460;11.810;2022-10-31T00:57:59;7.70;57.40
42135;DHT22;28312;43.460;11.810;2022-10-31T01:02:03;7.70;57.40
42135;DHT22;28312;43.460;11.810;2022-10-31T01:06:09;7.70;57.30
42135;DHT22;28312;43.460;11.810;2022-10-31T01:10:13;7.70;57.30
42135;DHT22;28312;43.460;11.810;2022-10-31T01:14:18;7.70;57.10
42135;DHT22;28312;43.460;11.810;2022-10-31T01:18:23;7.60;57.20
42135;DHT22;28312;43.460;11.810;2022-10-31T01:22:26;7.50;57.40
42135;DHT22;28312;43.460;11.810;2022-10-31T01:26:37;7.40;57.60
42135;DHT22;28312;43.460;11.810;2022-10-31T01:30:46;7.40;57.50
42135;DHT22;28312;43.460;11.810;2022-10-31T01:34:50;7.30;57.60
42135;DHT22;28312;43.460;11.810;2022-10-31T01:38:57;7.30;57.70
42135;DHT22;28312;43.460;11.810;2022-10-31T01:43:00;7.20;57.80
42135;DHT22;28312;43.460;11.810;2022-10-31T01:47:10;7.30;57.50
42135;DHT22;28312;43.460;11.810;2022-10-31T01:51:19;7.20;57.60
42135;DHT22;28312;43.460;11.810;2022-10-31T01:55:30;7.20;57.60
42135;DHT22;28312;43.460;11.810;2022-10-31T01:59:38;7.10;57.80
42135;DHT22;28312;43.460;11.810;2022-10-31T02:03:43;7.00;58.00
42135;DHT22;28312;43.460;11.810;2022-10-31T02:07:53;7.00;58.00
42135;DHT22;28312;43.460;11.810;2022-10-31T02:12:03;6.90;58.10
42135;DHT22;28312;43.460;11.810;2022-10-31T02:16:09;6.80;58.00
42135;DHT22;28312;43.460;11.810;2022-10-31T02:20:19;6.80;58.20
42135;DHT22;28312;43.460;11.810;2022-10-31T02:33:05;6.70;58.20
42135;DHT22;28312;43.460;11.810;2022-10-31T02:41:46;6.60;58.30
42135;DHT22;28312;43.460;11.810;2022-10-31T02:46:08;6.60;58.40
42135;DHT22;28312;43.460;11.810;2022-10-31T02:50:20;6.50;58.40
42135;DHT22;28312;43.460;11.810;2022-10-31T02:54:27;6.50;58.50
42135;DHT22;28312;43.460;11.810;2022-10-31T02:58:35;6.50;58.40
42135;DHT22;28312;43.460;11.810;2022-10-31T03:08:04;6.30;58.70
42135;DHT22;28312;43.460;11.810;2022-10-31T03:11:53;6.30;58.60
42135;DHT22;28312;43.460;11.810;2022-10-31T03:16:13;6.30;58.60
42135;DHT22;28312;43.460;11.810;2022-10-31T03:20:23;6.30;58.70
42135;DHT22;28312;43.460;11.810;2022-10-31T03:24:35;6.30;58.80
42135;DHT22;28312;43.460;11.810;2022-10-31T03:28:49;6.30;58.90
42135;DHT22;28312;43.460;11.810;2022-10-31T03:32:56;6.30;59.00
42135;DHT22;28312;43.460;11.810;2022-10-31T03:37:04;6.20;58.90
42135;DHT22;28312;43.460;11.810;2022-10-31T03:41:18;6.30;58.90
42135;DHT22;28312;43.460;11.810;2022-10-31T03:45:25;6.30;59.00
42135;DHT22;28312;43.460;11.810;2022-10-31T03:49:32;6.20;59.00
42135;DHT22;28312;43.460;11.810;2022-10-31T03:53:45;6.20;59.10
42135;DHT22;28312;43.460;11.810;2022-10-31T03:58:03;6.20;59.10
42135;DHT22;28312;43.460;11.810;2022-10-31T04:02:11;6.20;59.10
42135;DHT22;28312;43.460;11.810;2022-10-31T04:06:20;6.20;59.00
42135;DHT22;28312;43.460;11.810;2022-10-31T04:10:29;6.20;59.00
42135;DHT22;28312;43.460;11.810;2022-10-31T04:14:38;6.10;58.90
42135;DHT22;28312;43.460;11.810;2022-10-31T04:18:43;6.00;59.20
42135;DHT22;28312;43.460;11.810;2022-10-31T04:22:46;6.00;58.90
42135;DHT22;28312;43.460;11.810;2022-10-31T04:26:49;6.00;59.00
42135;DHT22;28312;43.460;11.810;2022-10-31T04:30:55;6.00;59.10
42135;DHT22;28312;43.460;11.810;2022-10-31T04:34:59;5.90;59.20
42135;DHT22;28312;43.460;11.810;2022-10-31T04:39:05;5.90;59.40
42135;DHT22;28312;43.460;11.810;2022-10-31T04:43:20;5.90;59.40
42135;DHT22;28312;43.460;11.810;2022-10-31T04:47:24;5.90;59.30
42135;DHT22;28312;43.460;11.810;2022-10-31T04:51:28;5.80;59.30
42135;DHT22;28312;43.460;11.810;2022-10-31T04:55:32;5.80;59.40
42135;DHT22;28312;43.460;11.810;2022-10-31T04:59:56;5.80;59.60
42135;DHT22;28312;43.460;11.810;2022-10-31T05:04:02;5.80;59.60
42135;DHT22;28312;43.460;11.810;2022-10-31T05:08:07;5.80;59.60
42135;DHT22;28312;43.460;11.810;2022-10-31T05:12:11;5.80;59.50
42135;DHT22;28312;43.460;11.810;2022-10-31T05:16:33;5.80;59.70
42135;DHT22;28312;43.460;11.810;2022-10-31T05:21:06;5.70;59.60
42135;DHT22;28312;43.460;11.810;2022-10-31T05:25:11;5.80;59.60
42135;DHT22;28312;43.460;11.810;2022-10-31T05:29:16;5.80;59.70
42135;DHT22;28312;43.460;11.810;2022-10-31T05:33:19;5.80;59.60
42135;DHT22;28312;43.460;11.810;2022-10-31T05:37:58;5.70;59.60
42135;DHT22;28312;43.460;11.810;2022-10-31T05:42:05;5.70;59.60
42135;DHT22;28312;43.460;11.810;2022-10-31T05:46:08;5.70;59.70
42135;DHT22;28312;43.460;11.810;2022-10-31T05:50:31;5.60;59.70
42135;DHT22;28312;43.460;11.810;2022-10-31T05:54:44;5.60;59.70
42135;DHT22;28312;43.460;11.810;2022-10-31T05:58:50;5.70;59.80
42135;DHT22;28312;43.460;11.810;2022-10-31T06:03:00;5.70;59.80
42135;DHT22;28312;43.460;11.810;2022-10-31T06:07:17;5.60;60.00
42135;DHT22;28312;43.460;11.810;2022-10-31T06:11:23;5.60;60.10
42135;DHT22;28312;43.460;11.810;2022-10-31T06:15:38;5.60;60.00
42135;DHT22;28312;43.460;11.810;2022-10-31T06:19:43;5.60;60.10
42135;DHT22;28312;43.460;11.810;2022-10-31T06:23:51;5.70;60.10
42135;DHT22;28312;43.460;11.810;2022-10-31T06:28:13;5.70;60.30
42135;DHT22;28312;43.460;11.810;2022-10-31T06:32:44;5.80;60.50
42135;DHT22;28312;43.460;11.810;2022-10-31T06:36:48;6.00;60.90
42135;DHT22;28312;43.460;11.810;2022-10-31T06:40:56;6.20;61.10
42135;DHT22;28312;43.460;11.810;2022-10-31T06:45:02;6.50;61.40
42135;DHT22;28312;43.460;11.810;2022-10-31T06:49:24;6.80;61.40
42135;DHT22;28312;43.460;11.810;2022-10-31T06:53:35;7.30;61.80
42135;DHT22;28312;43.460;11.810;2022-10-31T06:57:51;8.00;62.00
42135;DHT22;28312;43.460;11.810;2022-10-31T07:01:57;8.70;62.10
42135;DHT22;28312;43.460;11.810;2022-10-31T07:14:22;12.20;60.50
42135;DHT22;28312;43.460;11.810;2022-10-31T07:18:26;13.20;59.90
42135;DHT22;28312;43.460;11.810;2022-10-31T07:22:36;14.20;59.40
42135;DHT22;28312;43.460;11.810;2022-10-31T07:39:08;17.90;57.70
42135;DHT22;28312;43.460;11.810;2022-10-31T07:43:12;18.80;57.00
42135;DHT22;28312;43.460;11.810;2022-10-31T07:47:42;20.00;55.90
42135;DHT22;28312;43.460;11.810;2022-10-31T07:52:11;21.20;54.80
42135;DHT22;28312;43.460;11.810;2022-10-31T07:56:33;22.30;53.60
42135;DHT22;28312;43.460;11.810;2022-10-31T08:00:44;23.30;52.80
42135;DHT22;28312;43.460;11.810;2022-10-31T08:04:51;24.10;51.90
42135;DHT22;28312;43.460;11.810;2022-10-31T08:09:39;24.80;51.20
42135;DHT22;28312;43.460;11.810;2022-10-31T08:13:53;25.50;50.60
42135;DHT22;28312;43.460;11.810;2022-10-31T08:17:58;25.90;50.00
42135;DHT22;28312;43.460;11.810;2022-10-31T08:22:03;26.40;49.70
42135;DHT22;28312;43.460;11.810;2022-10-31T08:26:07;27.00;49.20
42135;DHT22;28312;43.460;11.810;2022-10-31T08:30:12;27.50;48.60
42135;DHT22;28312;43.460;11.810;2022-10-31T08:34:24;27.70;48.40
42135;DHT22;28312;43.460;11.810;2022-10-31T08:38:47;28.10;48.20
42135;DHT22;28312;43.460;11.810;2022-10-31T08:42:57;28.60;47.50
42135;DHT22;28312;43.460;11.810;2022-10-31T08:47:01;29.00;47.00
42135;DHT22;28312;43.460;11.810;2022-10-31T08:51:10;29.10;46.60
42135;DHT22;28312;43.460;11.810;2022-10-31T08:55:13;29.10;46.20
42135;DHT22;28312;43.460;11.810;2022-10-31T08:59:29;28.80;46.50
42135;DHT22;28312;43.460;11.810;2022-10-31T09:03:51;28.80;46.70
42135;DHT22;28312;43.460;11.810;2022-10-31T09:07:56;28.90;46.50
42135;DHT22;28312;43.460;11.810;2022-10-31T09:12:01;28.80;46.40
42135;DHT22;28312;43.460;11.810;2022-10-31T09:16:23;28.70;46.50
42135;DHT22;28312;43.460;11.810;2022-10-31T09:20:28;28.60;46.60
42135;DHT22;28312;43.460;11.810;2022-10-31T09:24:33;28.70;46.40
42135;DHT22;28312;43.460;11.810;2022-10-31T09:28:37;28.50;46.40
42135;DHT22;28312;43.460;11.810;2022-10-31T09:32:54;28.20;46.70
42135;DHT22;28312;43.460;11.810;2022-10-31T09:36:57;28.10;47.10
42135;DHT22;28312;43.460;11.810;2022-10-31T09:41:05;28.00;46.80
42135;DHT22;28312;43.460;11.810;2022-10-31T09:45:35;27.90;47.20
42135;DHT22;28312;43.460;11.810;2022-10-31T09:50:21;27.80;47.10
42135;DHT22;28312;43.460;11.810;2022-10-31T09:54:50;27.50;47.40
42135;DHT22;28312;43.460;11.810;2022-10-31T09:58:58;27.60;47.70
42135;DHT22;28312;43.460;11.810;2022-10-31T10:03:22;27.80;47.70
42135;DHT22;28312;43.460;11.810;2022-10-31T10:07:54;28.10;47.40
42135;DHT22;28312;43.460;11.810;2022-10-31T10:17:12;28.60;47.50
42135;DHT22;28312;43.460;11.810;2022-10-31T10:21:50;28.90;47.30
42135;DHT22;28312;43.460;11.810;2022-10-31T10:26:05;29.40;47.00
42135;DHT22;28312;43.460;11.810;2022-10-31T10:30:17;29.70;46.60
42135;DHT22;28312;43.460;11.810;2022-10-31T10:34:30;29.90;46.80
42135;DHT22;28312;43.460;11.810;2022-10-31T10:43:19;30.10;46.40
42135;DHT22;28312;43.460;11.810;2022-10-31T10:47:28;29.90;46.60
42135;DHT22;28312;43.460;11.810;2022-10-31T10:51:57;29.90;46.80
42135;DHT22;28312;43.460;11.810;2022-10-31T11:00:58;29.60;47.10
42135;DHT22;28312;43.460;11.810;2022-10-31T11:05:03;29.80;46.50
42135;DHT22;28312;43.460;11.810;2022-10-31T11:09:10;29.60;46.70
42135;DHT22;28312;43.460;11.810;2022-10-31T11:17:32;30.10;46.70
42135;DHT22;28312;43.460;11.810;2022-10-31T11:21:36;30.10;46.60
42135;DHT22;28312;43.460;11.810;2022-10-31T11:25:39;30.00;46.20
42135;DHT22;28312;43.460;11.810;2022-10-31T11:29:51;30.00;46.30
42135;DHT22;28312;43.460;11.810;2022-10-31T11:34:04;30.10;46.60
42135;DHT22;28312;43.460;11.810;2022-10-31T11:38:17;30.50;46.40
42135;DHT22;28312;43.460;11.810;2022-10-31T11:42:27;30.90;45.90
42135;DHT22;28312;43.460;11.810;2022-10-31T11:46:37;31.00;45.60
42135;DHT22;28312;43.460;11.810;2022-10-31T11:50:42;31.10;45.30
42135;DHT22;28312;43.460;11.810;2022-10-31T11:59:04;31.00;45.50
42135;DHT22;28312;43.460;11.810;2022-10-31T12:03:18;31.20;45.20
42135;DHT22;28312;43.460;11.810;2022-10-31T12:07:26;31.10;45.20
42135;DHT22;28312;43.460;11.810;2022-10-31T12:15:36;31.60;45.10
42135;DHT22;28312;43.460;11.810;2022-10-31T12:24:22;31.80;44.90
42135;DHT22;28312;43.460;11.810;2022-10-31T12:42:06;31.80;44.50
42135;DHT22;28312;43.460;11.810;2022-10-31T12:46:25;31.40;44.50
42135;DHT22;28312;43.460;11.810;2022-10-31T12:55:18;31.30;44.90
42135;DHT22;28312;43.460;11.810;2022-10-31T13:03:59;31.30;44.50
42135;DHT22;28312;43.460;11.810;2022-10-31T13:13:18;31.40;44.40
42135;DHT22;28312;43.460;11.810;2022-10-31T13:21:57;31.40;44.20
42135;DHT22;28312;43.460;11.810;2022-10-31T13:26:12;31.40;44.00
42135;DHT22;28312;43.460;11.810;2022-10-31T13:30:19;31.20;44.00
42135;DHT22;28312;43.460;11.810;2022-10-31T13:34:33;31.10;44.10
42135;DHT22;28312;43.460;11.810;2022-10-31T13:38:52;31.10;44.10
42135;DHT22;28312;43.460;11.810;2022-10-31T13:47:28;31.00;43.70
42135;DHT22;28312;43.460;11.810;2022-10-31T13:51:34;31.00;44.00
42135;DHT22;28312;43.460;11.810;2022-10-31T13:55:41;31.10;43.80
42135;DHT22;28312;43.460;11.810;2022-10-31T14:00:21;31.10;43.80
42135;DHT22;28312;43.460;11.810;2022-10-31T14:04:44;31.00;44.00
42135;DHT22;28312;43.460;11.810;2022-10-31T14:08:51;31.10;43.60
42135;DHT22;28312;43.460;11.810;2022-10-31T14:13:15;31.00;43.60
42135;DHT22;28312;43.460;11.810;2022-10-31T14:17:25;30.60;43.50
42135;DHT22;28312;43.460;11.810;2022-10-31T14:21:41;30.40;43.80
42135;DHT22;28312;43.460;11.810;2022-10-31T14:25:45;30.30;44.00
42135;DHT22;28312;43.460;11.810;2022-10-31T14:29:49;30.40;43.90
42135;DHT22;28312;43.460;11.810;2022-10-31T14:33:52;30.40;44.10
42135;DHT22;28312;43.460;11.810;2022-10-31T14:42:49;30.50;43.80
42135;DHT22;28312;43.460;11.810;2022-10-31T14:51:39;30.50;43.50
42135;DHT22;28312;43.460;11.810;2022-10-31T14:55:47;30.50;43.50
42135;DHT22;28312;43.460;11.810;2022-10-31T14:59:55;30.40;43.40
42135;DHT22;28312;43.460;11.810;2022-10-31T15:04:13;30.10;43.40
42135;DHT22;28312;43.460;11.810;2022-10-31T15:08:38;29.90;43.40
42135;DHT22;28312;43.460;11.810;2022-10-31T15:12:42;29.40;43.50
42135;DHT22;28312;43.460;11.810;2022-10-31T15:16:46;28.90;43.60
42135;DHT22;28312;43.460;11.810;2022-10-31T15:20:50;28.30;43.80
42135;DHT22;28312;43.460;11.810;2022-10-31T15:24:55;27.70;44.00
42135;DHT22;28312;43.460;11.810;2022-10-31T15:29:10;27.10;44.10
42135;DHT22;28312;43.460;11.810;2022-10-31T15:33:20;26.60;44.20
42135;DHT22;28312;43.460;11.810;2022-10-31T15:37:26;26.10;44.40
42135;DHT22;28312;43.460;11.810;2022-10-31T15:41:36;25.50;44.70
42135;DHT22;28312;43.460;11.810;2022-10-31T15:45:42;24.80;45.00
42135;DHT22;28312;43.460;11.810;2022-10-31T15:49:51;24.10;45.50
42135;DHT22;28312;43.460;11.810;2022-10-31T15:53:56;23.40;46.10
42135;DHT22;28312;43.460;11.810;2022-10-31T15:58:13;22.80;46.30
42135;DHT22;28312;43.460;11.810;2022-10-31T16:02:25;22.10;46.90
42135;DHT22;28312;43.460;11.810;2022-10-31T16:06:31;21.60;47.30
42135;DHT22;28312;43.460;11.810;2022-10-31T16:10:35;21.10;47.50
42135;DHT22;28312;43.460;11.810;2022-10-31T16:14:39;20.70;47.60
42135;DHT22;28312;43.460;11.810;2022-10-31T16:18:44;20.50;47.70
42135;DHT22;28312;43.460;11.810;2022-10-31T16:22:51;20.20;47.60
42135;DHT22;28312;43.460;11.810;2022-10-31T16:27:25;20.10;47.60
42135;DHT22;28312;43.460;11.810;2022-10-31T16:31:39;19.60;47.90
42135;DHT22;28312;43.460;11.810;2022-10-31T16:35:43;19.10;48.20
42135;DHT22;28312;43.460;11.810;2022-10-31T16:39:46;18.40;48.70
42135;DHT22;28312;43.460;11.810;2022-10-31T16:43:50;17.80;49.40
42135;DHT22;28312;43.460;11.810;2022-10-31T16:48:05;17.50;49.80
42135;DHT22;28312;43.460;11.810;2022-10-31T16:52:09;17.20;50.00
42135;DHT22;28312;43.460;11.810;2022-10-31T16:56:21;17.20;49.90
42135;DHT22;28312;43.460;11.810;2022-10-31T17:00:27;17.00;49.90
42135;DHT22;28312;43.460;11.810;2022-10-31T17:04:30;16.80;50.10
42135;DHT22;28312;43.460;11.810;2022-10-31T17:08:34;16.60;50.20
42135;DHT22;28312;43.460;11.810;2022-10-31T17:12:40;16.40;50.50
42135;DHT22;28312;43.460;11.810;2022-10-31T17:16:45;16.10;50.70
42135;DHT22;28312;43.460;11.810;2022-10-31T17:20:48;15.90;50.80
42135;DHT22;28312;43.460;11.810;2022-10-31T17:24:52;15.70;50.90
42135;DHT22;28312;43.460;11.810;2022-10-31T17:28:56;15.50;51.20
42135;DHT22;28312;43.460;11.810;2022-10-31T17:33:01;15.40;51.00
42135;DHT22;28312;43.460;11.810;2022-10-31T17:37:05;15.20;51.20
42135;DHT22;28312;43.460;11.810;2022-10-31T17:41:09;15.00;51.60
42135;DHT22;28312;43.460;11.810;2022-10-31T17:45:13;14.90;51.60
42135;DHT22;28312;43.460;11.810;2022-10-31T17:49:16;14.80;51.60
42135;DHT22;28312;43.460;11.810;2022-10-31T17:53:20;14.60;51.60
42135;DHT22;28312;43.460;11.810;2022-10-31T17:57:23;14.50;51.70
42135;DHT22;28312;43.460;11.810;2022-10-31T18:01:27;14.30;51.90
42135;DHT22;28312;43.460;11.810;2022-10-31T18:05:31;14.20;52.20
42135;DHT22;28312;43.460;11.810;2022-10-31T18:09:34;14.10;52.10
42135;DHT22;28312;43.460;11.810;2022-10-31T18:13:38;13.80;52.40
42135;DHT22;28312;43.460;11.810;2022-10-31T18:17:43;13.70;52.40
42135;DHT22;28312;43.460;11.810;2022-10-31T18:21:47;13.50;52.60
42135;DHT22;28312;43.460;11.810;2022-10-31T18:25:51;13.30;52.70
42135;DHT22;28312;43.460;11.810;2022-10-31T18:29:56;13.20;52.90
42135;DHT22;28312;43.460;11.810;2022-10-31T18:33:59;13.00;53.20
42135;DHT22;28312;43.460;11.810;2022-10-31T18:38:03;12.90;53.20
42135;DHT22;28312;43.460;11.810;2022-10-31T18:42:07;13.00;53.10
42135;DHT22;28312;43.460;11.810;2022-10-31T18:46:15;12.90;53.00
42135;DHT22;28312;43.460;11.810;2022-10-31T18:50:19;12.80;53.10
42135;DHT22;28312;43.460;11.810;2022-10-31T18:54:23;12.70;53.10
42135;DHT22;28312;43.460;11.810;2022-10-31T18:58:28;12.70;53.20
42135;DHT22;28312;43.460;11.810;2022-10-31T19:02:32;12.70;53.20
42135;DHT22;28312;43.460;11.810;2022-10-31T19:06:35;12.50;53.40
42135;DHT22;28312;43.460;11.810;2022-10-31T19:10:39;12.40;53.70
42135;DHT22;28312;43.460;11.810;2022-10-31T19:14:43;12.40;53.70
42135;DHT22;28312;43.460;11.810;2022-10-31T19:18:46;12.30;53.70
42135;DHT22;28312;43.460;11.810;2022-10-31T19:22:50;12.20;53.60
42135;DHT22;28312;43.460;11.810;2022-10-31T19:26:56;12.10;53.80
42135;DHT22;28312;43.460;11.810;2022-10-31T19:31:03;11.90;54.10
42135;DHT22;28312;43.460;11.810;2022-10-31T19:35:06;11.90;54.30
42135;DHT22;28312;43.460;11.810;2022-10-31T19:39:11;11.80;54.50
42135;DHT22;28312;43.460;11.810;2022-10-31T19:43:14;11.70;54.60
42135;DHT22;28312;43.460;11.810;2022-10-31T19:47:18;11.70;54.60
42135;DHT22;28312;43.460;11.810;2022-10-31T19:51:21;11.60;54.70
42135;DHT22;28312;43.460;11.810;2022-10-31T19:55:25;11.50;54.80
42135;DHT22;28312;43.460;11.810;2022-10-31T19:59:30;11.40;54.90
42135;DHT22;28312;43.460;11.810;2022-10-31T20:03:42;11.30;55.00
42135;DHT22;28312;43.460;11.810;2022-10-31T20:07:45;11.20;55.00
42135;DHT22;28312;43.460;11.810;2022-10-31T20:11:49;11.10;55.10
42135;DHT22;28312;43.460;11.810;2022-10-31T20:16:00;11.10;55.10
42135;DHT22;28312;43.460;11.810;2022-10-31T20:20:05;11.10;55.20
42135;DHT22;28312;43.460;11.810;2022-10-31T20:24:11;11.10;55.10
42135;DHT22;28312;43.460;11.810;2022-10-31T20:28:15;11.00;55.10
42135;DHT22;28312;43.460;11.810;2022-10-31T20:32:19;11.00;55.20
42135;DHT22;28312;43.460;11.810;2022-10-31T20:36:24;11.00;55.20
42135;DHT22;28312;43.460;11.810;2022-10-31T20:40:28;11.00;55.30
42135;DHT22;28312;43.460;11.810;2022-10-31T20:44:32;10.90;55.50
42135;DHT22;28312;43.460;11.810;2022-10-31T20:48:35;11.00;55.60
42135;DHT22;28312;43.460;11.810;2022-10-31T20:52:38;10.80;55.70
42135;DHT22;28312;43.460;11.810;2022-10-31T20:56:43;10.70;55.90
42135;DHT22;28312;43.460;11.810;2022-10-31T21:00:47;10.70;55.90
42135;DHT22;28312;43.460;11.810;2022-10-31T21:04:50;10.70;56.00
42135;DHT22;28312;43.460;11.810;2022-10-31T21:08:54;10.60;56.30
42135;DHT22;28312;43.460;11.810;2022-10-31T21:12:58;10.60;56.40
42135;DHT22;28312;43.460;11.810;2022-10-31T21:17:07;10.50;56.30
42135;DHT22;28312;43.460;11.810;2022-10-31T21:21:23;10.40;56.50
42135;DHT22;28312;43.460;11.810;2022-10-31T21:25:39;10.30;56.60
42135;DHT22;28312;43.460;11.810;2022-10-31T21:29:43;10.20;56.80
42135;DHT22;28312;43.460;11.810;2022-10-31T21:33:46;10.00;56.90
42135;DHT22;28312;43.460;11.810;2022-10-31T21:37:50;10.10;57.00
42135;DHT22;28312;43.460;11.810;2022-10-31T21:41:53;9.90;57.00
42135;DHT22;28312;43.460;11.810;2022-10-31T21:46:07;10.00;56.90
42135;DHT22;28312;43.460;11.810;2022-10-31T21:50:11;9.90;57.10
42135;DHT22;28312;43.460;11.810;2022-10-31T21:54:15;9.70;57.10
42135;DHT22;28312;43.460;11.810;2022-10-31T21:58:33;9.70;57.30
42135;DHT22;28312;43.460;11.810;2022-10-31T22:02:41;9.70;57.50
42135;DHT22;28312;43.460;11.810;2022-10-31T22:06:46;9.70;57.40
42135;DHT22;28312;43.460;11.810;2022-10-31T22:10:51;9.70;57.40
42135;DHT22;28312;43.460;11.810;2022-10-31T22:14:57;9.70;57.30
42135;DHT22;28312;43.460;11.810;2022-10-31T22:19:02;9.60;57.40
42135;DHT22;28312;43.460;11.810;2022-10-31T22:23:08;9.60;57.40
42135;DHT22;28312;43.460;11.810;2022-10-31T22:27:13;9.60;57.30
42135;DHT22;28312;43.460;11.810;2022-10-31T22:31:18;9.60;57.20
42135;DHT22;28312;43.460;11.810;2022-10-31T22:35:23;9.50;57.40
42135;DHT22;28312;43.460;11.810;2022-10-31T22:39:28;9.40;57.40
42135;DHT22;28312;43.460;11.810;2022-10-31T22:43:33;9.30;57.50
42135;DHT22;28312;43.460;11.810;2022-10-31T22:47:39;9.30;57.50
42135;DHT22;28312;43.460;11.810;2022-10-31T22:51:45;9.20;57.60
42135;DHT22;28312;43.460;11.810;2022-10-31T22:55:50;9.10;57.70
42135;DHT22;28312;43.460;11.810;2022-10-31T22:59:55;9.20;57.80
42135;DHT22;28312;43.460;11.810;2022-10-31T23:04:00;9.00;57.70
42135;DHT22;28312;43.460;11.810;2022-10-31T23:08:05;8.90;57.90
42135;DHT22;28312;43.460;11.810;2022-10-31T23:12:11;8.90;57.80
42135;DHT22;28312;43.460;11.810;2022-10-31T23:16:56;8.70;57.90
42135;DHT22;28312;43.460;11.810;2022-10-31T23:21:05;8.70;58.00
42135;DHT22;28312;43.460;11.810;2022-10-31T23:25:09;8.70;58.00
42135;DHT22;28312;43.460;11.810;2022-10-31T23:29:14;8.60;58.10
42135;DHT22;28312;43.460;11.810;2022-10-31T23:33:19;8.50;58.10
42135;DHT22;28312;43.460;11.810;2022-10-31T23:37:27;8.50;58.20
42135;DHT22;28312;43.460;11.810;2022-10-31T23:41:33;8.50;58.20
42135;DHT22;28312;43.460;11.810;2022-10-31T23:45:41;8.40;58.30
42135;DHT22;28312;43.460;11.810;2022-10-31T23:49:46;8.30;58.40
42135;DHT22;28312;43.460;11.810;2022-10-31T23:53:50;8.40;58.30
42135;DHT22;28312;43.460;11.810;2022-10-31T23:57:53;8.40;58.30
